createdAt,value
2019-03-01T00:00:33.977Z,6.10
2019-03-01T00:03:03.985Z,5.87
2019-03-01T00:06:10.567Z,6.57
2019-03-01T00:09:09.007Z,6.53
2019-03-01T00:11:43.487Z,6.87
2019-03-01T00:14:29.953Z,7.47
2019-03-01T00:17:10.437Z,7.70
2019-03-01T00:20:13.407Z,7.60
2019-03-01T00:23:02.884Z,7.60
2019-03-01T00:25:58.381Z,8.07
2019-03-01T00:29:01.713Z,7.40
2019-03-01T00:31:45.090Z,7.80
2019-03-01T00:34:31.521Z,7.73
2019-03-01T00:37:30.030Z,7.77
2019-03-01T00:40:04.416Z,7.10
2019-03-01T00:43:03.189Z,8.10
2019-03-01T00:45:33.236Z,7.73
2019-03-01T00:48:03.199Z,7.67
2019-03-01T00:50:33.326Z,7.73
2019-03-01T00:53:03.434Z,7.80
2019-03-01T00:55:33.459Z,7.27
2019-03-01T00:58:03.753Z,7.27
2019-03-01T01:00:41.606Z,7.33
2019-03-01T01:03:11.688Z,7.67
2019-03-01T01:05:41.858Z,7.73
2019-03-01T01:08:11.761Z,7.97
2019-03-01T01:10:41.582Z,7.17
2019-03-01T01:13:11.380Z,7.80
2019-03-01T01:15:41.341Z,7.47
2019-03-01T01:18:11.412Z,7.67
2019-03-01T01:20:41.742Z,7.50
2019-03-01T01:23:11.652Z,7.83
2019-03-01T01:25:41.664Z,7.40
2019-03-01T01:28:11.858Z,7.70
2019-03-01T01:30:41.966Z,7.70
2019-03-01T01:33:11.881Z,7.00
2019-03-01T01:35:42.085Z,7.57
2019-03-01T01:38:12.104Z,7.37
2019-03-01T01:40:42.120Z,7.47
2019-03-01T01:43:12.032Z,8.30
2019-03-01T01:45:41.947Z,7.57
2019-03-01T01:48:12.584Z,8.03
2019-03-01T01:50:42.584Z,7.80
2019-03-01T01:53:13.055Z,8.97
2019-03-01T01:55:43.065Z,8.90
2019-03-01T01:58:12.980Z,8.93
2019-03-01T02:00:43.599Z,8.33
2019-03-01T02:03:13.538Z,8.57
2019-03-01T02:05:43.709Z,9.17
2019-03-01T02:08:13.651Z,8.27
2019-03-01T02:10:43.779Z,7.93
2019-03-01T02:13:13.935Z,7.77
2019-03-01T02:15:43.946Z,8.23
2019-03-01T02:18:14.251Z,7.87
2019-03-01T02:20:44.367Z,7.50
2019-03-01T02:23:14.381Z,7.60
2019-03-01T02:25:44.595Z,7.17
2019-03-01T02:28:14.498Z,7.63
2019-03-01T02:30:48.989Z,7.97
2019-03-01T02:33:18.866Z,7.33
2019-03-01T02:35:48.860Z,6.73
2019-03-01T02:38:18.774Z,6.57
2019-03-01T02:40:48.984Z,6.17
2019-03-01T02:43:19.006Z,6.73
2019-03-01T02:45:49.312Z,6.80
2019-03-01T02:48:19.410Z,6.63
2019-03-01T02:50:49.449Z,6.10
2019-03-01T02:53:19.727Z,6.67
2019-03-01T02:55:49.741Z,6.10
2019-03-01T02:58:20.443Z,6.60
2019-03-01T03:00:50.652Z,6.30
2019-03-01T03:03:20.660Z,6.50
2019-03-01T03:05:58.043Z,6.83
2019-03-01T03:08:28.029Z,6.87
2019-03-01T03:10:58.484Z,5.97
2019-03-01T03:13:28.475Z,6.40
2019-03-01T03:15:58.463Z,6.40
2019-03-01T03:18:28.693Z,6.13
2019-03-01T03:20:59.227Z,5.80
2019-03-01T03:23:29.208Z,6.13
2019-03-01T03:25:59.333Z,6.00
2019-03-01T03:28:29.530Z,6.53
2019-03-01T03:30:59.746Z,6.10
2019-03-01T03:33:29.852Z,5.80
2019-03-01T03:36:00.077Z,5.83
2019-03-01T03:38:30.159Z,5.70
2019-03-01T03:41:00.590Z,6.07
2019-03-01T03:43:30.580Z,6.37
2019-03-01T03:46:00.693Z,5.53
2019-03-01T03:48:31.077Z,5.70
2019-03-01T03:51:01.106Z,6.37
2019-03-01T03:53:31.253Z,6.47
2019-03-01T03:56:01.327Z,6.13
2019-03-01T03:58:31.567Z,6.13
2019-03-01T04:01:01.760Z,6.10
2019-03-01T04:03:31.950Z,6.83
2019-03-01T04:06:02.068Z,6.30
2019-03-01T04:08:32.074Z,6.70
2019-03-01T04:11:02.417Z,7.33
2019-03-01T04:13:32.447Z,7.60
2019-03-01T04:16:02.798Z,7.90
2019-03-01T04:18:32.908Z,8.03
2019-03-01T04:21:02.918Z,7.67
2019-03-01T04:23:33.130Z,8.50
2019-03-01T04:26:02.962Z,7.60
2019-03-01T04:28:33.357Z,8.70
2019-03-01T04:31:04.351Z,8.17
2019-03-01T04:33:34.843Z,7.90
2019-03-01T04:36:05.106Z,8.73
2019-03-01T04:38:35.163Z,8.43
2019-03-01T04:41:05.386Z,10.57
2019-03-01T04:43:35.387Z,9.67
2019-03-01T04:46:05.499Z,9.83
2019-03-01T04:48:35.800Z,8.13
2019-03-01T04:51:06.008Z,8.73
2019-03-01T04:53:36.019Z,7.20
2019-03-01T04:56:06.831Z,8.03
2019-03-01T04:58:37.025Z,6.73
2019-03-01T05:01:06.940Z,6.80
2019-03-01T05:03:37.201Z,7.37
2019-03-01T05:06:07.359Z,6.87
2019-03-01T05:08:37.276Z,6.83
2019-03-01T05:11:07.281Z,7.00
2019-03-01T05:13:37.195Z,7.27
2019-03-01T05:16:07.109Z,7.40
2019-03-01T05:18:37.025Z,8.03
2019-03-01T05:21:06.939Z,8.60
2019-03-01T05:23:36.740Z,7.47
2019-03-01T05:26:06.667Z,7.20
2019-03-01T05:28:36.578Z,7.30
2019-03-01T05:31:06.688Z,7.27
2019-03-01T05:33:36.700Z,6.87
2019-03-01T05:36:06.712Z,6.90
2019-03-01T05:38:36.724Z,7.10
2019-03-01T05:41:06.738Z,7.17
2019-03-01T05:43:36.754Z,6.80
2019-03-01T05:46:06.814Z,8.27
2019-03-01T05:48:36.771Z,7.63
2019-03-01T05:51:06.784Z,6.97
2019-03-01T05:53:36.895Z,7.43
2019-03-01T05:56:06.807Z,7.30
2019-03-01T05:58:38.500Z,6.47
2019-03-01T06:01:24.232Z,6.87
2019-03-01T06:04:12.822Z,7.40
2019-03-01T06:07:27.935Z,7.03
2019-03-01T06:10:29.435Z,7.53
2019-03-01T06:13:13.006Z,7.50
2019-03-01T06:15:55.803Z,6.93
2019-03-01T06:19:01.985Z,7.40
2019-03-01T06:21:48.126Z,7.03
2019-03-01T06:24:54.213Z,7.33
2019-03-01T06:27:49.689Z,6.90
2019-03-01T06:30:35.712Z,7.30
2019-03-01T06:33:32.368Z,6.63
2019-03-01T06:36:24.592Z,6.80
2019-03-01T06:39:36.976Z,7.03
2019-03-01T06:42:17.315Z,9.23
2019-03-01T06:45:14.159Z,6.87
2019-03-01T06:47:47.905Z,8.17
2019-03-01T06:50:20.476Z,7.60
2019-03-01T06:52:50.782Z,7.80
2019-03-01T06:55:41.039Z,7.77
2019-03-01T06:58:15.672Z,7.63
2019-03-01T07:00:50.101Z,8.37
2019-03-01T07:03:18.940Z,7.60
2019-03-01T07:05:49.191Z,7.23
2019-03-01T07:08:19.159Z,7.27
2019-03-01T07:10:49.072Z,7.73
2019-03-01T07:13:19.182Z,7.73
2019-03-01T07:15:49.197Z,7.60
2019-03-01T07:18:19.131Z,7.90
2019-03-01T07:20:49.020Z,8.23
2019-03-01T07:23:19.265Z,8.20
2019-03-01T07:25:49.254Z,8.20
2019-03-01T07:28:19.161Z,7.63
2019-03-01T07:30:49.225Z,7.57
2019-03-01T07:33:19.376Z,7.67
2019-03-01T07:35:49.319Z,8.30
2019-03-01T07:38:19.203Z,7.40
2019-03-01T07:40:49.115Z,8.43
2019-03-01T07:43:19.027Z,7.93
2019-03-01T07:45:49.247Z,7.13
2019-03-01T07:48:19.743Z,7.60
2019-03-01T07:50:52.510Z,7.83
2019-03-01T07:53:21.436Z,7.10
2019-03-01T07:55:51.272Z,7.47
2019-03-01T07:58:21.823Z,7.13
2019-03-01T08:00:54.595Z,7.77
2019-03-01T08:03:24.941Z,7.17
2019-03-01T08:05:54.961Z,7.67
2019-03-01T08:08:24.948Z,7.37
2019-03-01T08:10:56.565Z,7.67
2019-03-01T08:13:26.910Z,7.60
2019-03-01T08:15:57.096Z,7.50
2019-03-01T08:18:27.269Z,7.43
2019-03-01T08:20:57.270Z,7.30
2019-03-01T08:23:27.293Z,7.50
2019-03-01T08:25:58.768Z,7.47
2019-03-01T08:28:28.980Z,7.10
2019-03-01T08:30:58.995Z,6.83
2019-03-01T08:33:29.293Z,6.80
2019-03-01T08:36:02.458Z,14.60
2019-03-01T08:38:33.261Z,11.47
2019-03-01T08:41:03.060Z,6.70
2019-03-01T08:43:33.006Z,6.53
2019-03-01T08:46:05.462Z,6.50
2019-03-01T08:48:34.967Z,6.30
2019-03-01T08:51:04.984Z,6.30
2019-03-01T08:53:34.888Z,6.37
2019-03-01T08:56:05.001Z,6.53
2019-03-01T08:58:37.660Z,6.23
2019-03-01T09:01:20.456Z,6.47
2019-03-01T09:04:03.753Z,6.27
2019-03-01T09:06:33.751Z,5.93
2019-03-01T09:09:05.230Z,6.37
2019-03-01T09:11:35.448Z,6.17
2019-03-01T09:14:06.654Z,6.97
2019-03-01T09:16:36.649Z,5.97
2019-03-01T09:19:07.841Z,5.87
2019-03-01T09:21:39.482Z,5.73
2019-03-01T09:24:09.594Z,5.50
2019-03-01T09:26:39.709Z,6.17
2019-03-01T09:29:12.984Z,5.93
2019-03-01T09:31:41.345Z,5.50
2019-03-01T09:34:11.356Z,6.13
2019-03-01T09:36:42.723Z,5.80
2019-03-01T09:39:14.513Z,5.50
2019-03-01T09:41:45.025Z,5.23
2019-03-01T09:44:15.035Z,5.83
2019-03-01T09:46:44.979Z,5.13
2019-03-01T09:49:14.960Z,4.90
2019-03-01T09:51:49.169Z,4.53
2019-03-01T09:54:16.656Z,4.93
2019-03-01T09:56:46.774Z,4.90
2019-03-01T09:59:17.175Z,4.27
2019-03-01T10:01:47.394Z,4.90
2019-03-01T10:04:17.988Z,4.40
2019-03-01T10:06:47.998Z,4.37
2019-03-01T10:09:19.911Z,4.97
2019-03-01T10:11:50.004Z,4.17
2019-03-01T10:14:20.511Z,4.77
2019-03-01T10:16:54.046Z,4.37
2019-03-01T10:19:24.053Z,4.37
2019-03-01T10:21:54.257Z,3.97
2019-03-01T10:24:24.266Z,4.87
2019-03-01T10:26:54.281Z,3.60
2019-03-01T10:29:24.176Z,3.90
2019-03-01T10:31:54.123Z,4.23
2019-03-01T10:34:24.174Z,3.60
2019-03-01T10:36:54.236Z,3.50
2019-03-01T10:39:24.238Z,3.23
2019-03-01T10:41:54.454Z,2.97
2019-03-01T10:44:24.460Z,3.00
2019-03-01T10:46:54.475Z,3.30
2019-03-01T10:49:24.551Z,3.37
2019-03-01T10:51:54.700Z,2.97
2019-03-01T10:54:24.700Z,2.80
2019-03-01T10:56:54.949Z,3.30
2019-03-01T10:59:24.941Z,3.00
2019-03-01T11:01:54.813Z,2.87
2019-03-01T11:04:24.846Z,2.90
2019-03-01T11:06:55.658Z,2.50
2019-03-01T11:09:25.757Z,2.60
2019-03-01T11:11:55.766Z,2.30
2019-03-01T11:14:25.948Z,2.80
2019-03-01T11:16:55.988Z,2.77
2019-03-01T11:19:26.119Z,3.77
2019-03-01T11:21:56.312Z,2.50
2019-03-01T11:24:26.219Z,2.70
2019-03-01T11:26:56.529Z,3.00
2019-03-01T11:29:26.652Z,4.03
2019-03-01T11:31:56.654Z,2.87
2019-03-01T11:34:26.675Z,2.87
2019-03-01T11:36:56.868Z,3.87
2019-03-01T11:39:27.279Z,3.47
2019-03-01T11:41:57.192Z,3.90
2019-03-01T11:44:27.197Z,3.10
2019-03-01T11:46:57.451Z,2.90
2019-03-01T11:49:27.773Z,3.03
2019-03-01T11:51:57.833Z,2.83
2019-03-01T11:54:27.978Z,2.80
2019-03-01T11:56:58.041Z,2.20
2019-03-01T11:59:27.842Z,3.10
2019-03-01T12:01:57.869Z,3.23
2019-03-01T12:04:27.888Z,3.17
2019-03-01T12:06:57.983Z,2.80
2019-03-01T12:09:28.050Z,2.80
2019-03-01T12:11:58.016Z,2.67
2019-03-01T12:14:28.025Z,2.80
2019-03-01T12:16:58.134Z,2.60
2019-03-01T12:19:27.988Z,2.90
2019-03-01T12:21:57.966Z,2.97
2019-03-01T12:24:28.465Z,3.47
2019-03-01T12:26:58.548Z,4.03
2019-03-01T12:29:28.690Z,3.40
2019-03-01T12:31:58.702Z,3.10
2019-03-01T12:34:28.824Z,3.33
2019-03-01T12:36:59.080Z,3.10
2019-03-01T12:39:29.239Z,3.00
2019-03-01T12:41:59.673Z,2.83
2019-03-01T12:44:29.757Z,2.77
2019-03-01T12:47:00.340Z,2.50
2019-03-01T12:49:30.447Z,2.20
2019-03-01T12:52:00.663Z,2.00
2019-03-01T12:54:30.912Z,2.40
2019-03-01T12:57:00.990Z,2.20
2019-03-01T12:59:31.092Z,2.30
2019-03-01T13:02:01.395Z,2.30
2019-03-01T13:04:31.309Z,2.00
2019-03-01T13:07:01.221Z,2.20
2019-03-01T13:09:31.032Z,2.30
2019-03-01T13:12:01.049Z,2.60
2019-03-01T13:14:31.168Z,1.60
2019-03-01T13:17:01.672Z,1.83
2019-03-01T13:19:33.251Z,1.70
2019-03-01T13:22:03.649Z,1.80
2019-03-01T13:24:33.594Z,1.93
2019-03-01T13:27:03.409Z,2.17
2019-03-01T13:29:33.286Z,1.90
2019-03-01T13:32:03.208Z,2.20
2019-03-01T13:34:33.236Z,2.20
2019-03-01T13:37:03.230Z,2.10
2019-03-01T13:39:33.148Z,2.70
2019-03-01T13:42:03.193Z,2.60
2019-03-01T13:44:36.107Z,2.90
2019-03-01T13:47:05.373Z,2.57
2019-03-01T13:49:36.728Z,2.43
2019-03-01T13:52:06.744Z,2.00
2019-03-01T13:54:36.856Z,1.80
2019-03-01T13:57:08.370Z,1.50
2019-03-01T13:59:40.398Z,1.80
2019-03-01T14:02:10.430Z,1.60
2019-03-01T14:04:41.363Z,2.27
2019-03-01T14:07:11.729Z,1.97
2019-03-01T14:09:41.864Z,1.87
2019-03-01T14:12:12.179Z,2.10
2019-03-01T14:14:42.841Z,2.40
2019-03-01T14:17:12.860Z,2.43
2019-03-01T14:19:43.077Z,2.03
2019-03-01T14:22:13.989Z,2.27
2019-03-01T14:24:44.285Z,1.90
2019-03-01T14:27:14.289Z,2.73
2019-03-01T14:29:44.287Z,2.40
2019-03-01T14:32:19.938Z,2.83
2019-03-01T14:34:48.655Z,2.57
2019-03-01T14:37:19.309Z,2.37
2019-03-01T14:39:49.890Z,2.60
2019-03-01T14:42:19.851Z,2.37
2019-03-01T14:44:49.789Z,2.30
2019-03-01T14:47:20.175Z,2.30
2019-03-01T14:49:50.183Z,2.37
2019-03-01T14:52:21.291Z,2.33
2019-03-01T14:54:52.370Z,2.73
2019-03-01T14:57:26.066Z,2.30
2019-03-01T15:00:03.306Z,2.50
2019-03-01T15:02:49.521Z,1.97
2019-03-01T15:05:20.031Z,2.10
2019-03-01T15:07:50.050Z,2.50
2019-03-01T15:10:20.357Z,2.10
2019-03-01T15:12:50.389Z,2.07
2019-03-01T15:15:22.945Z,2.27
2019-03-01T15:17:53.796Z,2.30
2019-03-01T15:20:24.405Z,1.90
2019-03-01T15:22:54.354Z,2.10
2019-03-01T15:25:24.743Z,2.50
2019-03-01T15:27:54.765Z,2.27
2019-03-01T15:30:24.788Z,2.40
2019-03-01T15:32:54.799Z,2.00
2019-03-01T15:35:24.943Z,2.00
2019-03-01T15:37:54.909Z,2.30
2019-03-01T15:40:27.903Z,2.10
2019-03-01T15:42:57.195Z,2.40
2019-03-01T15:45:27.205Z,2.40
2019-03-01T15:47:58.748Z,2.50
2019-03-01T15:50:29.002Z,2.20
2019-03-01T15:52:59.201Z,2.30
2019-03-01T15:55:29.719Z,2.10
2019-03-01T15:58:00.064Z,2.30
2019-03-01T16:00:30.562Z,2.90
2019-03-01T16:03:00.635Z,2.67
2019-03-01T16:05:30.680Z,2.43
2019-03-01T16:08:01.602Z,2.67
2019-03-01T16:10:32.894Z,2.80
2019-03-01T16:13:03.557Z,2.87
2019-03-01T16:15:34.849Z,2.60
2019-03-01T16:18:05.552Z,2.80
2019-03-01T16:20:35.423Z,2.50
2019-03-01T16:23:05.444Z,2.50
2019-03-01T16:25:35.654Z,2.50
2019-03-01T16:28:05.693Z,2.80
2019-03-01T16:30:35.588Z,2.60
2019-03-01T16:33:05.489Z,2.67
2019-03-01T16:35:35.504Z,2.17
2019-03-01T16:38:05.815Z,2.30
2019-03-01T16:40:35.919Z,2.80
2019-03-01T16:43:05.947Z,2.57
2019-03-01T16:45:36.344Z,2.50
2019-03-01T16:48:06.344Z,2.47
2019-03-01T16:50:36.269Z,2.50
2019-03-01T16:53:06.077Z,3.20
2019-03-01T16:55:36.384Z,2.73
2019-03-01T16:58:07.241Z,2.77
2019-03-01T17:00:38.108Z,2.67
2019-03-01T17:03:16.821Z,3.10
2019-03-01T17:05:43.454Z,2.77
2019-03-01T17:08:13.456Z,3.10
2019-03-01T17:10:43.534Z,3.27
2019-03-01T17:13:13.335Z,4.30
2019-03-01T17:15:45.486Z,4.87
2019-03-01T17:18:15.291Z,4.53
2019-03-01T17:20:45.130Z,3.73
2019-03-01T17:23:15.163Z,3.20
2019-03-01T17:25:45.018Z,3.00
2019-03-01T17:28:16.399Z,3.20
2019-03-01T17:30:50.768Z,3.20
2019-03-01T17:33:18.584Z,4.00
2019-03-01T17:35:48.757Z,3.40
2019-03-01T17:38:19.165Z,3.97
2019-03-01T17:40:49.078Z,4.57
2019-03-01T17:43:19.063Z,4.33
2019-03-01T17:45:49.012Z,4.60
2019-03-01T17:48:22.235Z,4.90
2019-03-01T17:50:50.793Z,4.93
2019-03-01T17:53:21.103Z,6.03
2019-03-01T17:55:51.243Z,5.87
2019-03-01T17:58:21.255Z,15.33
2019-03-01T18:00:51.279Z,16.63
2019-03-01T18:03:21.249Z,10.53
2019-03-01T18:05:51.261Z,6.63
2019-03-01T18:08:21.734Z,7.03
2019-03-01T18:10:51.775Z,7.80
2019-03-01T18:13:21.787Z,6.80
2019-03-01T18:15:51.801Z,10.47
2019-03-01T18:18:21.811Z,9.07
2019-03-01T18:20:52.117Z,7.07
2019-03-01T18:23:22.029Z,5.60
2019-03-01T18:25:52.053Z,4.60
2019-03-01T18:28:24.957Z,7.20
2019-03-01T18:30:56.181Z,6.13
2019-03-01T18:33:27.385Z,5.00
2019-03-01T18:35:57.886Z,5.77
2019-03-01T18:38:31.323Z,5.33
2019-03-01T18:41:01.376Z,5.50
2019-03-01T18:43:31.793Z,5.07
2019-03-01T18:46:01.868Z,4.23
2019-03-01T18:48:33.574Z,4.30
2019-03-01T18:51:06.684Z,10.40
2019-03-01T18:53:35.345Z,18.73
2019-03-01T18:56:05.786Z,10.23
2019-03-01T18:58:35.962Z,4.77
2019-03-01T19:01:10.829Z,4.50
2019-03-01T19:03:40.288Z,4.00
2019-03-01T19:06:12.934Z,4.40
2019-03-01T19:08:43.690Z,5.00
2019-03-01T19:11:13.592Z,7.20
2019-03-01T19:13:43.697Z,5.97
2019-03-01T19:16:13.833Z,5.60
2019-03-01T19:18:43.818Z,5.13
2019-03-01T19:21:17.075Z,4.60
2019-03-01T19:23:45.909Z,4.73
2019-03-01T19:26:15.818Z,6.30
2019-03-01T19:28:45.829Z,5.40
2019-03-01T19:31:16.043Z,5.83
2019-03-01T19:33:46.062Z,5.40
2019-03-01T19:36:16.072Z,5.83
2019-03-01T19:38:46.530Z,6.63
2019-03-01T19:41:19.989Z,6.90
2019-03-01T19:43:54.344Z,6.07
2019-03-01T19:46:20.633Z,6.67
2019-03-01T19:48:50.839Z,6.63
2019-03-01T19:51:20.851Z,6.73
2019-03-01T19:53:50.791Z,7.33
2019-03-01T19:56:24.971Z,6.70
2019-03-01T19:58:52.668Z,7.20
2019-03-01T20:01:22.721Z,7.90
2019-03-01T20:03:53.169Z,8.27
2019-03-01T20:06:23.387Z,7.97
2019-03-01T20:08:53.634Z,9.43
2019-03-01T20:11:26.617Z,9.63
2019-03-01T20:13:55.085Z,9.47
2019-03-01T20:16:25.246Z,9.07
2019-03-01T20:18:55.507Z,7.90
2019-03-01T20:21:25.520Z,7.63
2019-03-01T20:23:55.537Z,7.73
2019-03-01T20:26:26.668Z,9.17
2019-03-01T20:28:57.265Z,9.33
2019-03-01T20:31:27.562Z,8.83
2019-03-01T20:33:58.610Z,9.20
2019-03-01T20:36:29.422Z,9.17
2019-03-01T20:38:59.239Z,9.30
2019-03-01T20:41:29.067Z,9.87
2019-03-01T20:44:01.041Z,9.40
2019-03-01T20:46:31.336Z,9.50
2019-03-01T20:49:03.824Z,8.20
2019-03-01T20:51:33.036Z,7.60
2019-03-01T20:54:02.970Z,7.07
2019-03-01T20:56:32.824Z,7.30
2019-03-01T20:59:02.766Z,5.90
2019-03-01T21:01:33.678Z,6.80
2019-03-01T21:04:05.633Z,6.80
2019-03-01T21:06:37.380Z,6.97
2019-03-01T21:09:08.133Z,7.10
2019-03-01T21:11:38.037Z,7.07
2019-03-01T21:14:08.052Z,6.80
2019-03-01T21:16:41.334Z,10.57
2019-03-01T21:19:10.114Z,8.70
2019-03-01T21:21:40.352Z,7.47
2019-03-01T21:24:10.358Z,8.10
2019-03-01T21:26:40.273Z,8.03
2019-03-01T21:29:12.509Z,8.10
2019-03-01T21:31:41.832Z,7.43
2019-03-01T21:34:11.918Z,8.60
2019-03-01T21:36:42.395Z,9.37
2019-03-01T21:39:12.687Z,9.30
2019-03-01T21:41:44.809Z,9.50
2019-03-01T21:44:14.286Z,9.47
2019-03-01T21:46:44.205Z,10.60
2019-03-01T21:49:14.114Z,10.80
2019-03-01T21:51:44.176Z,12.73
2019-03-01T21:54:16.374Z,12.53
2019-03-01T21:56:55.619Z,13.73
2019-03-01T21:59:18.536Z,14.33
2019-03-01T22:01:48.996Z,13.40
2019-03-01T22:04:18.963Z,16.33
2019-03-01T22:06:48.818Z,16.10
2019-03-01T22:09:20.638Z,15.00
2019-03-01T22:11:50.901Z,13.27
2019-03-01T22:14:21.211Z,12.17
2019-03-01T22:16:51.125Z,12.57
2019-03-01T22:19:21.238Z,12.27
2019-03-01T22:21:51.155Z,11.17
2019-03-01T22:24:23.677Z,12.47
2019-03-01T22:26:53.776Z,12.30
2019-03-01T22:29:24.493Z,11.17
2019-03-01T22:31:54.535Z,10.87
2019-03-01T22:34:27.450Z,11.53
2019-03-01T22:36:57.068Z,12.97
2019-03-01T22:39:27.071Z,11.70
2019-03-01T22:41:57.144Z,11.07
2019-03-01T22:44:27.751Z,11.43
2019-03-01T22:47:00.483Z,11.43
2019-03-01T22:49:31.814Z,11.37
2019-03-01T22:52:01.315Z,11.90
2019-03-01T22:54:34.214Z,12.57
2019-03-01T22:57:04.092Z,12.70
2019-03-01T22:59:34.279Z,11.70
2019-03-01T23:02:08.148Z,11.40
2019-03-01T23:04:37.967Z,11.70
2019-03-01T23:07:08.395Z,11.80
2019-03-01T23:09:38.363Z,11.53
2019-03-01T23:12:08.848Z,11.70
2019-03-01T23:14:39.282Z,11.17
2019-03-01T23:17:09.414Z,12.07
2019-03-01T23:19:39.404Z,13.80
2019-03-01T23:22:11.000Z,13.00
2019-03-01T23:24:41.200Z,15.10
2019-03-01T23:27:11.335Z,14.00
2019-03-01T23:29:41.520Z,13.60
2019-03-01T23:32:15.291Z,13.87
2019-03-01T23:34:43.803Z,15.13
2019-03-01T23:37:14.112Z,19.50
2019-03-01T23:39:43.922Z,16.80
2019-03-01T23:42:17.414Z,16.93
2019-03-01T23:44:45.964Z,15.73
2019-03-01T23:47:15.817Z,14.77
2019-03-01T23:49:45.701Z,14.43
2019-03-01T23:52:15.667Z,13.83
2019-03-01T23:54:47.738Z,13.33
2019-03-01T23:57:17.640Z,13.63
2019-03-01T23:59:47.559Z,14.27
